sensor_id;sensor_type;location;lat;lon;timestamp;pressure;altitude;pressure_sealevel;temperature;humidity
61963;BME280;47927;42.646;23.096;2023-08-12T00:01:09;92734.09;;;16.43;57.03
61963;BME280;47927;42.646;23.096;2023-08-12T00:03:35;92725.88;;;16.30;57.21
61963;BME280;47927;42.646;23.096;2023-08-12T00:06:00;92726.63;;;16.24;57.35
61963;BME280;47927;42.646;23.096;2023-08-12T00:08:27;92737.91;;;16.21;57.84
61963;BME280;47927;42.646;23.096;2023-08-12T00:10:52;92737.16;;;16.20;57.72
61963;BME280;47927;42.646;23.096;2023-08-12T00:13:18;92733.41;;;16.14;57.71
61963;BME280;47927;42.646;23.096;2023-08-12T00:15:44;92733.84;;;15.98;57.99
61963;BME280;47927;42.646;23.096;2023-08-12T00:18:10;92728.22;;;15.96;57.81
61963;BME280;47927;42.646;23.096;2023-08-12T00:20:35;92727.88;;;15.83;58.71
61963;BME280;47927;42.646;23.096;2023-08-12T00:23:04;92730.13;;;15.74;58.88
61963;BME280;47927;42.646;23.096;2023-08-12T00:25:29;92723.38;;;15.59;58.79
61963;BME280;47927;42.646;23.096;2023-08-12T00:27:55;92729.00;;;15.50;58.94
61963;BME280;47927;42.646;23.096;2023-08-12T00:30:20;92725.97;;;15.55;58.85
61963;BME280;47927;42.646;23.096;2023-08-12T00:32:46;92728.59;;;15.55;58.86
61963;BME280;47927;42.646;23.096;2023-08-12T00:35:12;92728.97;;;15.57;58.71
61963;BME280;47927;42.646;23.096;2023-08-12T00:37:38;92729.00;;;15.54;58.76
61963;BME280;47927;42.646;23.096;2023-08-12T00:40:04;92727.13;;;15.50;58.91
61963;BME280;47927;42.646;23.096;2023-08-12T00:42:30;92724.09;;;15.48;58.84
61963;BME280;47927;42.646;23.096;2023-08-12T00:44:56;92725.97;;;15.52;58.77
61963;BME280;47927;42.646;23.096;2023-08-12T00:47:22;92726.72;;;15.48;58.63
61963;BME280;47927;42.646;23.096;2023-08-12T00:49:48;92729.75;;;15.47;59.01
61963;BME280;47927;42.646;23.096;2023-08-12T00:52:15;92724.09;;;15.48;58.96
61963;BME280;47927;42.646;23.096;2023-08-12T00:54:41;92705.72;;;15.20;59.76
61963;BME280;47927;42.646;23.096;2023-08-12T00:57:06;92715.47;;;15.16;60.33
61963;BME280;47927;42.646;23.096;2023-08-12T00:59:35;92709.47;;;15.22;60.98
61963;BME280;47927;42.646;23.096;2023-08-12T01:02:02;92711.75;;;15.38;60.15
61963;BME280;47927;42.646;23.096;2023-08-12T01:04:29;92697.84;;;15.34;59.53
61963;BME280;47927;42.646;23.096;2023-08-12T01:06:55;92709.84;;;15.42;59.14
61963;BME280;47927;42.646;23.096;2023-08-12T01:09:21;92711.72;;;15.45;59.49
61963;BME280;47927;42.646;23.096;2023-08-12T01:12:03;92710.63;;;15.50;59.33
61963;BME280;47927;42.646;23.096;2023-08-12T01:14:35;92710.59;;;15.46;58.67
61963;BME280;47927;42.646;23.096;2023-08-12T01:17:06;92708.72;;;15.36;58.73
61963;BME280;47927;42.646;23.096;2023-08-12T01:19:35;92717.38;;;15.26;59.09
61963;BME280;47927;42.646;23.096;2023-08-12T01:22:03;92713.94;;;14.90;60.63
61963;BME280;47927;42.646;23.096;2023-08-12T01:24:43;92699.69;;;14.84;60.65
61963;BME280;47927;42.646;23.096;2023-08-12T01:27:10;92717.69;;;14.92;59.88
61963;BME280;47927;42.646;23.096;2023-08-12T01:29:41;92709.81;;;14.92;59.80
61963;BME280;47927;42.646;23.096;2023-08-12T01:32:08;92707.97;;;14.96;59.61
61963;BME280;47927;42.646;23.096;2023-08-12T01:37:26;92704.22;;;14.90;60.37
61963;BME280;47927;42.646;23.096;2023-08-12T01:39:54;92709.06;;;14.99;60.27
61963;BME280;47927;42.646;23.096;2023-08-12T01:42:21;92710.97;;;15.06;59.96
61963;BME280;47927;42.646;23.096;2023-08-12T01:44:47;92703.84;;;15.10;59.88
61963;BME280;47927;42.646;23.096;2023-08-12T01:47:13;92709.47;;;15.15;59.63
61963;BME280;47927;42.646;23.096;2023-08-12T01:49:39;92658.09;;;14.82;59.49
61963;BME280;47927;42.646;23.096;2023-08-12T01:52:04;92688.47;;;14.97;59.65
61963;BME280;47927;42.646;23.096;2023-08-12T01:54:30;92704.22;;;14.94;60.44
61963;BME280;47927;42.646;23.096;2023-08-12T01:57:07;92704.53;;;14.78;61.06
61963;BME280;47927;42.646;23.096;2023-08-12T01:59:38;92703.44;;;14.75;61.26
61963;BME280;47927;42.646;23.096;2023-08-12T02:02:04;92708.31;;;14.88;60.59
61963;BME280;47927;42.646;23.096;2023-08-12T02:04:31;92706.84;;;14.90;60.86
61963;BME280;47927;42.646;23.096;2023-08-12T02:07:15;92709.06;;;14.95;60.51
61963;BME280;47927;42.646;23.096;2023-08-12T02:09:41;92709.47;;;15.01;60.37
61963;BME280;47927;42.646;23.096;2023-08-12T02:12:06;92704.97;;;15.05;60.09
61963;BME280;47927;42.646;23.096;2023-08-12T02:14:32;92708.34;;;15.06;59.39
61963;BME280;47927;42.646;23.096;2023-08-12T02:16:58;92706.09;;;15.04;59.39
61963;BME280;47927;42.646;23.096;2023-08-12T02:19:24;92700.47;;;14.95;59.28
61963;BME280;47927;42.646;23.096;2023-08-12T02:21:49;92707.59;;;14.94;59.20
61963;BME280;47927;42.646;23.096;2023-08-12T02:24:15;92698.19;;;14.90;59.39
61963;BME280;47927;42.646;23.096;2023-08-12T02:26:40;92696.63;;;14.60;59.70
61963;BME280;47927;42.646;23.096;2023-08-12T02:29:06;92701.81;;;14.46;60.17
61963;BME280;47927;42.646;23.096;2023-08-12T02:31:32;92698.00;;;14.29;60.34
61963;BME280;47927;42.646;23.096;2023-08-12T02:33:58;92700.22;;;14.23;60.71
61963;BME280;47927;42.646;23.096;2023-08-12T02:36:23;92689.78;;;14.30;59.97
61963;BME280;47927;42.646;23.096;2023-08-12T02:38:50;92700.28;;;14.38;59.62
61963;BME280;47927;42.646;23.096;2023-08-12T02:41:16;92700.25;;;14.27;59.98
61963;BME280;47927;42.646;23.096;2023-08-12T02:43:41;92698.75;;;14.26;59.96
61963;BME280;47927;42.646;23.096;2023-08-12T02:46:07;92696.47;;;14.21;59.78
61963;BME280;47927;42.646;23.096;2023-08-12T02:48:32;92698.00;;;14.25;59.86
61963;BME280;47927;42.646;23.096;2023-08-12T02:50:58;92705.13;;;14.32;59.74
61963;BME280;47927;42.646;23.096;2023-08-12T02:53:23;92705.13;;;14.28;59.68
61963;BME280;47927;42.646;23.096;2023-08-12T02:55:49;92705.81;;;14.14;60.03
61963;BME280;47927;42.646;23.096;2023-08-12T02:58:14;92706.94;;;14.17;60.22
61963;BME280;47927;42.646;23.096;2023-08-12T03:00:43;92713.31;;;14.20;60.00
61963;BME280;47927;42.646;23.096;2023-08-12T03:03:11;92703.16;;;14.07;59.83
61963;BME280;47927;42.646;23.096;2023-08-12T03:05:37;92714.47;;;14.22;59.56
61963;BME280;47927;42.646;23.096;2023-08-12T03:08:04;92720.00;;;14.06;59.50
61963;BME280;47927;42.646;23.096;2023-08-12T03:10:30;92706.06;;;13.91;60.28
61963;BME280;47927;42.646;23.096;2023-08-12T03:12:56;92715.13;;;14.01;60.32
61963;BME280;47927;42.646;23.096;2023-08-12T03:15:22;92697.38;;;13.73;60.94
61963;BME280;47927;42.646;23.096;2023-08-12T03:17:48;92721.44;;;13.97;60.57
61963;BME280;47927;42.646;23.096;2023-08-12T03:20:14;92716.91;;;13.90;60.98
61963;BME280;47927;42.646;23.096;2023-08-12T03:22:40;92716.59;;;13.99;61.02
61963;BME280;47927;42.646;23.096;2023-08-12T03:25:07;92721.50;;;14.07;60.63
61963;BME280;47927;42.646;23.096;2023-08-12T03:27:34;92712.53;;;14.08;60.73
61963;BME280;47927;42.646;23.096;2023-08-12T03:29:59;92711.44;;;14.13;60.41
61963;BME280;47927;42.646;23.096;2023-08-12T03:32:25;92717.03;;;14.11;60.27
61963;BME280;47927;42.646;23.096;2023-08-12T03:34:51;92723.81;;;14.20;60.41
61963;BME280;47927;42.646;23.096;2023-08-12T03:37:18;92703.19;;;14.14;59.84
61963;BME280;47927;42.646;23.096;2023-08-12T03:39:45;92701.69;;;14.10;60.01
61963;BME280;47927;42.646;23.096;2023-08-12T03:42:11;92718.97;;;14.25;59.79
61963;BME280;47927;42.646;23.096;2023-08-12T03:44:37;92717.09;;;14.26;59.62
61963;BME280;47927;42.646;23.096;2023-08-12T03:47:03;92711.47;;;14.27;59.56
61963;BME280;47927;42.646;23.096;2023-08-12T03:49:28;92716.00;;;14.34;60.39
61963;BME280;47927;42.646;23.096;2023-08-12T03:52:12;92722.81;;;14.46;60.21
61963;BME280;47927;42.646;23.096;2023-08-12T03:54:38;92724.38;;;14.57;60.09
61963;BME280;47927;42.646;23.096;2023-08-12T03:57:04;92717.69;;;14.85;59.81
61963;BME280;47927;42.646;23.096;2023-08-12T03:59:30;92726.34;;;15.54;59.25
61963;BME280;47927;42.646;23.096;2023-08-12T04:01:56;92724.31;;;16.44;57.49
61963;BME280;47927;42.646;23.096;2023-08-12T04:04:23;92722.88;;;17.61;54.53
61963;BME280;47927;42.646;23.096;2023-08-12T04:06:48;92702.50;;;18.75;50.60
61963;BME280;47927;42.646;23.096;2023-08-12T04:09:18;92722.69;;;20.14;48.44
61963;BME280;47927;42.646;23.096;2023-08-12T04:11:44;92725.03;;;21.24;44.48
61963;BME280;47927;42.646;23.096;2023-08-12T04:14:10;92722.34;;;22.06;42.93
61963;BME280;47927;42.646;23.096;2023-08-12T04:16:36;92727.34;;;22.62;42.18
61963;BME280;47927;42.646;23.096;2023-08-12T04:19:02;92725.44;;;23.17;40.90
61963;BME280;47927;42.646;23.096;2023-08-12T04:21:28;92717.66;;;23.36;39.77
61963;BME280;47927;42.646;23.096;2023-08-12T04:23:53;92729.19;;;23.93;39.61
61963;BME280;47927;42.646;23.096;2023-08-12T04:26:19;92730.25;;;23.96;39.01
61963;BME280;47927;42.646;23.096;2023-08-12T04:28:45;92728.41;;;24.62;38.23
61963;BME280;47927;42.646;23.096;2023-08-12T04:31:10;92722.94;;;25.50;36.49
61963;BME280;47927;42.646;23.096;2023-08-12T04:33:39;92730.66;;;25.66;36.40
61963;BME280;47927;42.646;23.096;2023-08-12T04:36:04;92723.34;;;25.39;36.53
61963;BME280;47927;42.646;23.096;2023-08-12T04:38:31;92731.72;;;24.09;38.80
61963;BME280;47927;42.646;23.096;2023-08-12T04:40:58;92719.25;;;23.72;39.63
61963;BME280;47927;42.646;23.096;2023-08-12T04:43:24;92722.03;;;23.04;40.84
61963;BME280;47927;42.646;23.096;2023-08-12T04:45:49;92731.03;;;22.94;41.05
61963;BME280;47927;42.646;23.096;2023-08-12T04:48:17;92709.16;;;23.03;41.29
61963;BME280;47927;42.646;23.096;2023-08-12T04:50:43;92723.28;;;23.63;41.13
61963;BME280;47927;42.646;23.096;2023-08-12T04:53:08;92730.22;;;24.08;40.36
61963;BME280;47927;42.646;23.096;2023-08-12T04:55:34;92713.16;;;24.85;39.17
61963;BME280;47927;42.646;23.096;2023-08-12T04:58:01;92727.56;;;25.59;37.32
61963;BME280;47927;42.646;23.096;2023-08-12T05:00:27;92723.13;;;25.74;37.61
61963;BME280;47927;42.646;23.096;2023-08-12T05:02:53;92721.53;;;25.27;37.59
61963;BME280;47927;42.646;23.096;2023-08-12T05:05:19;92724.28;;;25.14;38.37
61963;BME280;47927;42.646;23.096;2023-08-12T05:07:45;92729.28;;;24.81;38.12
61963;BME280;47927;42.646;23.096;2023-08-12T05:10:16;92722.09;;;24.12;40.06
61963;BME280;47927;42.646;23.096;2023-08-12T05:12:43;92723.72;;;23.75;40.49
61963;BME280;47927;42.646;23.096;2023-08-12T05:15:10;92728.09;;;23.56;40.79
61963;BME280;47927;42.646;23.096;2023-08-12T05:17:36;92730.53;;;23.50;41.30
61963;BME280;47927;42.646;23.096;2023-08-12T05:20:01;92735.28;;;23.68;40.20
61963;BME280;47927;42.646;23.096;2023-08-12T05:22:27;92737.44;;;23.35;41.31
61963;BME280;47927;42.646;23.096;2023-08-12T05:24:52;92731.91;;;23.16;41.30
61963;BME280;47927;42.646;23.096;2023-08-12T05:27:18;92731.59;;;23.27;41.15
61963;BME280;47927;42.646;23.096;2023-08-12T05:29:43;92737.66;;;23.40;41.42
61963;BME280;47927;42.646;23.096;2023-08-12T05:32:09;92732.88;;;23.48;42.19
61963;BME280;47927;42.646;23.096;2023-08-12T05:34:34;92738.81;;;23.52;41.72
61963;BME280;47927;42.646;23.096;2023-08-12T05:37:00;92741.28;;;23.72;41.06
61963;BME280;47927;42.646;23.096;2023-08-12T05:39:25;92746.84;;;24.00;40.21
61963;BME280;47927;42.646;23.096;2023-08-12T05:41:51;92739.78;;;24.19;40.45
61963;BME280;47927;42.646;23.096;2023-08-12T05:44:17;92743.59;;;24.18;40.08
61963;BME280;47927;42.646;23.096;2023-08-12T05:46:43;92740.59;;;23.94;40.91
61963;BME280;47927;42.646;23.096;2023-08-12T05:49:08;92745.91;;;26.34;36.97
61963;BME280;47927;42.646;23.096;2023-08-12T05:51:35;92743.81;;;30.10;29.43
61963;BME280;47927;42.646;23.096;2023-08-12T05:54:00;92751.97;;;31.35;27.71
61963;BME280;47927;42.646;23.096;2023-08-12T05:56:26;92744.34;;;32.67;26.43
61963;BME280;47927;42.646;23.096;2023-08-12T05:58:51;92747.09;;;32.13;25.94
61963;BME280;47927;42.646;23.096;2023-08-12T06:01:18;92744.19;;;33.55;25.20
61963;BME280;47927;42.646;23.096;2023-08-12T06:03:43;92748.59;;;33.42;25.28
61963;BME280;47927;42.646;23.096;2023-08-12T06:06:08;92750.53;;;35.38;23.18
61963;BME280;47927;42.646;23.096;2023-08-12T06:08:34;92750.78;;;37.33;19.83
61963;BME280;47927;42.646;23.096;2023-08-12T06:11:00;92745.28;;;39.19;18.00
61963;BME280;47927;42.646;23.096;2023-08-12T06:13:25;92725.03;;;40.35;15.49
61963;BME280;47927;42.646;23.096;2023-08-12T06:15:51;92750.13;;;41.67;16.51
61963;BME280;47927;42.646;23.096;2023-08-12T06:18:16;92755.03;;;42.23;15.28
61963;BME280;47927;42.646;23.096;2023-08-12T06:20:42;92751.41;;;43.41;14.38
61963;BME280;47927;42.646;23.096;2023-08-12T06:23:07;92745.69;;;43.22;15.26
61963;BME280;47927;42.646;23.096;2023-08-12T06:25:33;92742.81;;;42.16;15.27
61963;BME280;47927;42.646;23.096;2023-08-12T06:27:58;92750.69;;;43.08;14.60
61963;BME280;47927;42.646;23.096;2023-08-12T06:30:24;92744.41;;;43.48;13.76
61963;BME280;47927;42.646;23.096;2023-08-12T06:32:50;92742.78;;;43.20;13.21
61963;BME280;47927;42.646;23.096;2023-08-12T06:35:16;92738.84;;;44.41;12.25
61963;BME280;47927;42.646;23.096;2023-08-12T06:37:42;92747.66;;;45.55;11.55
61963;BME280;47927;42.646;23.096;2023-08-12T06:40:08;92745.16;;;46.15;11.70
61963;BME280;47927;42.646;23.096;2023-08-12T06:42:33;92735.63;;;45.23;11.68
61963;BME280;47927;42.646;23.096;2023-08-12T06:44:59;92732.09;;;44.86;11.69
61963;BME280;47927;42.646;23.096;2023-08-12T06:47:25;92745.78;;;45.58;11.13
61963;BME280;47927;42.646;23.096;2023-08-12T06:49:53;92740.75;;;45.83;11.47
61963;BME280;47927;42.646;23.096;2023-08-12T06:52:18;92739.84;;;46.27;11.25
61963;BME280;47927;42.646;23.096;2023-08-12T06:54:44;92741.41;;;46.40;10.73
61963;BME280;47927;42.646;23.096;2023-08-12T06:57:09;92736.75;;;46.52;10.27
61963;BME280;47927;42.646;23.096;2023-08-12T06:59:37;92748.53;;;46.63;9.92
61963;BME280;47927;42.646;23.096;2023-08-12T07:02:03;92732.69;;;45.95;10.17
61963;BME280;47927;42.646;23.096;2023-08-12T07:04:28;92732.56;;;46.03;11.22
61963;BME280;47927;42.646;23.096;2023-08-12T07:06:54;92731.25;;;46.52;10.21
61963;BME280;47927;42.646;23.096;2023-08-12T07:09:20;92733.56;;;46.07;10.98
61963;BME280;47927;42.646;23.096;2023-08-12T07:11:46;92723.88;;;47.25;10.97
61963;BME280;47927;42.646;23.096;2023-08-12T07:14:11;92732.28;;;46.67;11.52
61963;BME280;47927;42.646;23.096;2023-08-12T07:16:37;92724.91;;;47.20;10.40
61963;BME280;47927;42.646;23.096;2023-08-12T07:19:02;92734.16;;;47.34;9.75
61963;BME280;47927;42.646;23.096;2023-08-12T07:21:28;92732.56;;;46.61;10.30
61963;BME280;47927;42.646;23.096;2023-08-12T07:23:53;92737.81;;;47.27;10.89
61963;BME280;47927;42.646;23.096;2023-08-12T07:26:19;92733.59;;;47.26;10.30
61963;BME280;47927;42.646;23.096;2023-08-12T07:28:44;92731.22;;;46.91;10.33
61963;BME280;47927;42.646;23.096;2023-08-12T07:31:10;92738.47;;;46.96;10.33
61963;BME280;47927;42.646;23.096;2023-08-12T07:33:35;92731.66;;;46.97;10.20
61963;BME280;47927;42.646;23.096;2023-08-12T07:36:02;92732.81;;;45.87;11.24
61963;BME280;47927;42.646;23.096;2023-08-12T07:38:28;92730.16;;;45.70;10.81
61963;BME280;47927;42.646;23.096;2023-08-12T07:40:54;92727.38;;;46.36;11.62
61963;BME280;47927;42.646;23.096;2023-08-12T07:43:20;92730.25;;;46.67;10.25
61963;BME280;47927;42.646;23.096;2023-08-12T07:45:45;92706.06;;;46.27;10.60
61963;BME280;47927;42.646;23.096;2023-08-12T07:48:15;92727.19;;;46.83;10.29
61963;BME280;47927;42.646;23.096;2023-08-12T07:50:41;92721.91;;;47.16;10.76
61963;BME280;47927;42.646;23.096;2023-08-12T07:53:06;92728.06;;;46.46;11.10
61963;BME280;47927;42.646;23.096;2023-08-12T07:55:32;92725.47;;;46.48;9.98
61963;BME280;47927;42.646;23.096;2023-08-12T07:57:57;92722.00;;;46.28;10.64
61963;BME280;47927;42.646;23.096;2023-08-12T08:00:23;92724.72;;;46.57;10.09
61963;BME280;47927;42.646;23.096;2023-08-12T08:02:48;92725.00;;;46.23;11.38
61963;BME280;47927;42.646;23.096;2023-08-12T08:05:14;92717.94;;;46.29;10.07
61963;BME280;47927;42.646;23.096;2023-08-12T08:07:40;92727.91;;;46.25;10.61
61963;BME280;47927;42.646;23.096;2023-08-12T08:10:05;92727.03;;;46.61;10.54
61963;BME280;47927;42.646;23.096;2023-08-12T08:12:31;92724.84;;;46.79;9.65
61963;BME280;47927;42.646;23.096;2023-08-12T08:14:56;92731.09;;;46.21;10.87
61963;BME280;47927;42.646;23.096;2023-08-12T08:17:22;92720.31;;;45.86;11.73
61963;BME280;47927;42.646;23.096;2023-08-12T08:19:47;92716.16;;;46.05;10.88
61963;BME280;47927;42.646;23.096;2023-08-12T08:22:13;92721.91;;;45.80;10.63
61963;BME280;47927;42.646;23.096;2023-08-12T08:24:39;92713.72;;;44.89;11.68
61963;BME280;47927;42.646;23.096;2023-08-12T08:27:04;92716.84;;;44.75;12.25
61963;BME280;47927;42.646;23.096;2023-08-12T08:29:30;92723.63;;;45.01;11.82
61963;BME280;47927;42.646;23.096;2023-08-12T08:31:56;92713.31;;;44.48;10.96
61963;BME280;47927;42.646;23.096;2023-08-12T08:34:21;92711.16;;;42.86;13.62
61963;BME280;47927;42.646;23.096;2023-08-12T08:36:47;92708.31;;;44.19;13.34
61963;BME280;47927;42.646;23.096;2023-08-12T08:39:12;92713.13;;;44.80;12.09
61963;BME280;47927;42.646;23.096;2023-08-12T08:41:39;92704.72;;;44.78;11.45
61963;BME280;47927;42.646;23.096;2023-08-12T08:44:07;92713.25;;;44.65;11.08
61963;BME280;47927;42.646;23.096;2023-08-12T08:46:33;92710.13;;;42.74;12.30
61963;BME280;47927;42.646;23.096;2023-08-12T08:48:59;92704.00;;;42.50;12.99
61963;BME280;47927;42.646;23.096;2023-08-12T08:51:30;92701.88;;;42.41;12.77
61963;BME280;47927;42.646;23.096;2023-08-12T08:53:56;92695.19;;;42.60;12.74
61963;BME280;47927;42.646;23.096;2023-08-12T08:56:23;92702.72;;;42.92;13.75
61963;BME280;47927;42.646;23.096;2023-08-12T08:58:49;92696.16;;;42.54;13.18
61963;BME280;47927;42.646;23.096;2023-08-12T09:01:17;92702.59;;;41.48;13.28
61963;BME280;47927;42.646;23.096;2023-08-12T09:03:44;92697.56;;;39.26;15.23
61963;BME280;47927;42.646;23.096;2023-08-12T09:06:10;92696.66;;;38.55;16.03
61963;BME280;47927;42.646;23.096;2023-08-12T09:08:37;92692.16;;;38.58;16.48
61963;BME280;47927;42.646;23.096;2023-08-12T09:11:05;92686.19;;;39.14;16.08
61963;BME280;47927;42.646;23.096;2023-08-12T09:13:31;92685.47;;;39.14;15.17
61963;BME280;47927;42.646;23.096;2023-08-12T09:15:56;92693.28;;;38.96;15.96
61963;BME280;47927;42.646;23.096;2023-08-12T09:18:22;92679.69;;;39.38;15.40
61963;BME280;47927;42.646;23.096;2023-08-12T09:20:50;92667.66;;;39.13;16.09
61963;BME280;47927;42.646;23.096;2023-08-12T09:23:16;92684.44;;;38.83;16.48
61963;BME280;47927;42.646;23.096;2023-08-12T09:25:43;92691.84;;;38.95;15.30
61963;BME280;47927;42.646;23.096;2023-08-12T09:28:10;92683.72;;;38.48;15.50
61963;BME280;47927;42.646;23.096;2023-08-12T09:30:36;92674.28;;;37.29;16.35
61963;BME280;47927;42.646;23.096;2023-08-12T09:33:04;92673.00;;;37.17;16.38
61963;BME280;47927;42.646;23.096;2023-08-12T09:35:36;92668.47;;;37.92;15.94
61963;BME280;47927;42.646;23.096;2023-08-12T09:38:07;92662.00;;;37.55;16.48
61963;BME280;47927;42.646;23.096;2023-08-12T09:40:35;92671.75;;;36.86;17.43
61963;BME280;47927;42.646;23.096;2023-08-12T09:43:01;92666.09;;;36.84;17.74
61963;BME280;47927;42.646;23.096;2023-08-12T09:45:27;92654.47;;;37.02;17.45
61963;BME280;47927;42.646;23.096;2023-08-12T09:47:54;92658.53;;;38.07;16.90
61963;BME280;47927;42.646;23.096;2023-08-12T09:50:23;92663.31;;;38.41;15.57
61963;BME280;47927;42.646;23.096;2023-08-12T09:52:51;92654.78;;;39.13;15.78
61963;BME280;47927;42.646;23.096;2023-08-12T09:55:19;92660.53;;;38.20;16.73
61963;BME280;47927;42.646;23.096;2023-08-12T09:57:48;92657.22;;;36.83;17.87
61963;BME280;47927;42.646;23.096;2023-08-12T10:00:15;92658.13;;;36.35;17.95
61963;BME280;47927;42.646;23.096;2023-08-12T10:02:45;92657.81;;;35.51;18.66
61963;BME280;47927;42.646;23.096;2023-08-12T10:05:12;92656.50;;;36.07;18.60
61963;BME280;47927;42.646;23.096;2023-08-12T10:07:40;92652.88;;;35.55;19.06
61963;BME280;47927;42.646;23.096;2023-08-12T10:10:06;92647.66;;;36.95;18.33
61963;BME280;47927;42.646;23.096;2023-08-12T10:12:33;92631.75;;;37.45;17.08
61963;BME280;47927;42.646;23.096;2023-08-12T10:15:00;92632.59;;;36.94;17.75
61963;BME280;47927;42.646;23.096;2023-08-12T10:17:25;92634.91;;;35.77;19.35
61963;BME280;47927;42.646;23.096;2023-08-12T10:19:55;92637.59;;;36.58;19.02
61963;BME280;47927;42.646;23.096;2023-08-12T10:22:25;92631.84;;;36.81;17.54
61963;BME280;47927;42.646;23.096;2023-08-12T10:24:51;92636.81;;;36.77;17.40
61963;BME280;47927;42.646;23.096;2023-08-12T10:27:17;92637.84;;;36.73;17.58
61963;BME280;47927;42.646;23.096;2023-08-12T10:29:43;92628.97;;;34.33;19.50
61963;BME280;47927;42.646;23.096;2023-08-12T10:32:09;92618.31;;;35.12;19.57
61963;BME280;47927;42.646;23.096;2023-08-12T10:34:35;92622.97;;;34.82;19.25
61963;BME280;47927;42.646;23.096;2023-08-12T10:37:02;92620.97;;;35.18;19.11
61963;BME280;47927;42.646;23.096;2023-08-12T10:39:28;92628.88;;;35.65;19.37
61963;BME280;47927;42.646;23.096;2023-08-12T10:41:55;92621.31;;;34.73;18.53
61963;BME280;47927;42.646;23.096;2023-08-12T10:44:21;92599.66;;;33.85;20.87
61963;BME280;47927;42.646;23.096;2023-08-12T10:46:51;92612.38;;;34.48;19.50
61963;BME280;47927;42.646;23.096;2023-08-12T10:49:19;92610.91;;;34.00;19.58
61963;BME280;47927;42.646;23.096;2023-08-12T10:51:50;92610.47;;;33.85;19.95
61963;BME280;47927;42.646;23.096;2023-08-12T10:54:16;92608.72;;;32.89;21.56
61963;BME280;47927;42.646;23.096;2023-08-12T11:02:29;92603.75;;;33.55;19.67
61963;BME280;47927;42.646;23.096;2023-08-12T11:05:07;92600.31;;;34.13;18.91
61963;BME280;47927;42.646;23.096;2023-08-12T11:07:56;92602.94;;;33.66;17.96
61963;BME280;47927;42.646;23.096;2023-08-12T11:10:23;92596.31;;;34.20;19.41
61963;BME280;47927;42.646;23.096;2023-08-12T11:12:54;92592.63;;;34.23;17.72
61963;BME280;47927;42.646;23.096;2023-08-12T11:15:42;92605.03;;;34.43;20.03
61963;BME280;47927;42.646;23.096;2023-08-12T11:18:19;92596.03;;;33.76;18.83
61963;BME280;47927;42.646;23.096;2023-08-12T11:20:49;92592.25;;;33.32;18.83
61963;BME280;47927;42.646;23.096;2023-08-12T11:23:14;92591.72;;;33.51;19.19
61963;BME280;47927;42.646;23.096;2023-08-12T11:25:42;92587.59;;;33.10;19.61
61963;BME280;47927;42.646;23.096;2023-08-12T11:28:08;92582.63;;;33.37;20.11
61963;BME280;47927;42.646;23.096;2023-08-12T11:30:34;92572.91;;;33.81;18.58
61963;BME280;47927;42.646;23.096;2023-08-12T11:33:01;92582.31;;;33.69;18.86
61963;BME280;47927;42.646;23.096;2023-08-12T11:35:27;92584.53;;;33.70;19.01
61963;BME280;47927;42.646;23.096;2023-08-12T11:37:56;92587.53;;;33.55;18.10
61963;BME280;47927;42.646;23.096;2023-08-12T11:40:23;92572.13;;;33.92;19.76
61963;BME280;47927;42.646;23.096;2023-08-12T11:42:50;92572.22;;;33.75;19.44
61963;BME280;47927;42.646;23.096;2023-08-12T11:45:18;92581.16;;;34.00;19.05
61963;BME280;47927;42.646;23.096;2023-08-12T11:47:44;92580.59;;;33.66;18.23
61963;BME280;47927;42.646;23.096;2023-08-12T11:50:11;92581.19;;;32.18;19.36
61963;BME280;47927;42.646;23.096;2023-08-12T11:52:38;92566.47;;;31.96;19.88
61963;BME280;47927;42.646;23.096;2023-08-12T11:55:07;92566.44;;;31.91;19.24
61963;BME280;47927;42.646;23.096;2023-08-12T11:57:33;92567.97;;;32.14;19.31
61963;BME280;47927;42.646;23.096;2023-08-12T12:00:05;92570.19;;;32.16;19.50
61963;BME280;47927;42.646;23.096;2023-08-12T12:02:57;92564.91;;;31.73;20.80
61963;BME280;47927;42.646;23.096;2023-08-12T12:05:25;92577.00;;;30.34;21.34
61963;BME280;47927;42.646;23.096;2023-08-12T12:07:52;92557.09;;;29.73;22.75
61963;BME280;47927;42.646;23.096;2023-08-12T12:10:39;92567.16;;;28.67;23.74
61963;BME280;47927;42.646;23.096;2023-08-12T12:13:04;92553.47;;;29.36;24.05
61963;BME280;47927;42.646;23.096;2023-08-12T12:15:31;92557.28;;;29.90;24.64
61963;BME280;47927;42.646;23.096;2023-08-12T12:17:56;92555.97;;;30.32;25.57
61963;BME280;47927;42.646;23.096;2023-08-12T12:20:22;92556.59;;;30.48;23.06
61963;BME280;47927;42.646;23.096;2023-08-12T12:22:48;92556.34;;;30.19;23.06
61963;BME280;47927;42.646;23.096;2023-08-12T12:25:15;92558.22;;;28.91;24.60
61963;BME280;47927;42.646;23.096;2023-08-12T12:27:42;92556.03;;;29.24;24.92
61963;BME280;47927;42.646;23.096;2023-08-12T12:30:10;92561.78;;;29.17;25.72
61963;BME280;47927;42.646;23.096;2023-08-12T12:32:37;92551.06;;;29.58;27.33
61963;BME280;47927;42.646;23.096;2023-08-12T12:35:03;92555.38;;;29.96;25.64
61963;BME280;47927;42.646;23.096;2023-08-12T12:37:29;92556.28;;;30.14;25.37
61963;BME280;47927;42.646;23.096;2023-08-12T12:39:55;92557.41;;;30.91;24.09
61963;BME280;47927;42.646;23.096;2023-08-12T12:42:20;92555.19;;;30.90;25.07
61963;BME280;47927;42.646;23.096;2023-08-12T12:44:46;92544.50;;;31.01;26.23
61963;BME280;47927;42.646;23.096;2023-08-12T12:47:11;92545.78;;;31.11;26.48
61963;BME280;47927;42.646;23.096;2023-08-12T12:49:41;92534.22;;;30.99;23.99
61963;BME280;47927;42.646;23.096;2023-08-12T12:52:09;92541.31;;;30.97;25.43
61963;BME280;47927;42.646;23.096;2023-08-12T12:54:34;92544.44;;;30.90;25.72
61963;BME280;47927;42.646;23.096;2023-08-12T12:57:00;92540.41;;;30.74;24.54